Time;durP1;ratioP1;P1;durP2;ratioP2;P2;SDS_P1;SDS_P2;PMS_P1;PMS_P2;Temp;Humidity;BMP_temperature;BMP_pressure;BME280_temperature;BME280_humidity;BME280_pressure;Samples;Min_cycle;Max_cycle;Signal;HPM_P1;HPM_P2
2022/06/19 00:01:05;;;;;;;;;15.25;14.25;;;;;30.65;38.67;100246.34;5101043;27;45429;-71
2022/06/19 00:03:34;;;;;;;;;13.75;13.75;;;;;30.56;39.92;100247.53;5099786;27;45315;-71
2022/06/19 00:06:00;;;;;;;;;12.00;12.00;;;;;30.50;40.16;100253.78;5089166;27;45387;-71
2022/06/19 00:08:27;;;;;;;;;13.25;12.50;;;;;30.42;40.63;100240.13;5101212;27;45238;-71
2022/06/19 00:10:52;;;;;;;;;14.50;14.50;;;;;30.38;41.13;100247.06;5098097;27;46073;-71
2022/06/19 00:13:18;;;;;;;;;18.00;14.00;;;;;30.27;41.52;100268.50;5100579;27;46241;-71
2022/06/19 00:15:44;;;;;;;;;17.00;13.75;;;;;30.15;41.66;100269.16;5100539;27;45431;-71
2022/06/19 00:18:09;;;;;;;;;19.25;14.75;;;;;29.99;42.41;100289.44;5099202;27;45546;-71
2022/06/19 00:20:34;;;;;;;;;17.25;15.50;;;;;29.91;42.29;100299.50;5100576;27;45329;-71
2022/06/19 00:23:00;;;;;;;;;15.25;14.50;;;;;29.86;42.29;100309.34;5094988;27;46830;-71
2022/06/19 00:25:25;;;;;;;;;16.25;15.25;;;;;29.75;43.23;100307.88;5100653;27;45367;-71
2022/06/19 00:27:50;;;;;;;;;15.25;13.75;;;;;29.62;42.93;100299.38;5099322;27;45368;-71
2022/06/19 00:30:16;;;;;;;;;12.75;11.75;;;;;29.50;43.10;100316.34;5100311;27;45447;-71
2022/06/19 00:32:41;;;;;;;;;12.00;11.25;;;;;29.37;43.40;100308.69;5098380;27;47077;-71
2022/06/19 00:35:08;;;;;;;;;14.25;13.00;;;;;29.22;42.96;100310.53;5100742;27;45276;-71
2022/06/19 00:37:34;;;;;;;;;14.25;12.25;;;;;29.13;42.92;100295.94;5100625;27;45259;-71
2022/06/19 00:40:00;;;;;;;;;11.00;10.25;;;;;28.93;43.24;100286.44;5093325;27;45409;-71
2022/06/19 00:42:26;;;;;;;;;8.50;8.50;;;;;28.78;42.96;100262.50;5099367;27;45329;-71
2022/06/19 00:44:52;;;;;;;;;10.00;9.25;;;;;28.72;42.99;100282.47;5099943;27;45449;-71
2022/06/19 00:47:21;;;;;;;;;9.00;9.00;;;;;28.60;43.38;100282.00;5100590;27;45253;-71
2022/06/19 00:50:22;;;;;;;;;10.25;10.25;;;;;28.52;42.89;100276.50;5100196;27;45535;-71
2022/06/19 00:52:48;;;;;;;;;9.00;9.00;;;;;28.43;42.98;100307.75;5099149;27;45258;-71
2022/06/19 00:55:19;;;;;;;;;12.25;9.25;;;;;28.32;42.96;100325.47;5100194;27;45152;-71
2022/06/19 00:57:53;;;;;;;;;13.75;8.75;;;;;28.22;43.08;100352.25;5100600;27;45491;-71
2022/06/19 01:00:29;;;;;;;;;9.25;7.25;;;;;28.06;42.65;100348.50;5099922;27;45756;-71
2022/06/19 01:03:03;;;;;;;;;8.75;8.25;;;;;27.87;42.21;100314.03;5100253;27;46306;-72
2022/06/19 01:05:30;;;;;;;;;9.00;5.50;;;;;27.71;42.40;100350.53;5083978;27;45395;-71
2022/06/19 01:07:59;;;;;;;;;9.00;6.75;;;;;27.58;42.54;100341.94;5102721;27;45262;-71
2022/06/19 01:10:25;;;;;;;;;7.50;7.25;;;;;27.48;42.72;100352.22;5101746;27;45539;-71
2022/06/19 01:12:51;;;;;;;;;8.25;7.00;;;;;27.35;42.78;100344.53;5102645;27;45474;-71
2022/06/19 01:15:20;;;;;;;;;8.25;6.00;;;;;27.23;42.86;100346.69;5103077;27;45422;-71
2022/06/19 01:18:02;;;;;;;;;6.25;5.25;;;;;27.19;42.61;100364.47;5103819;27;45398;-71
2022/06/19 01:20:29;;;;;;;;;9.75;6.25;;;;;27.07;42.56;100358.44;5091360;27;45294;-71
2022/06/19 01:23:12;;;;;;;;;6.75;6.75;;;;;26.95;42.33;100349.69;5101156;27;48800;-71
2022/06/19 01:25:40;;;;;;;;;7.75;7.75;;;;;26.87;42.50;100344.19;5103529;27;45412;-71
2022/06/19 01:30:53;;;;;;;;;10.25;8.75;;;;;26.47;43.16;100353.03;5102368;27;45431;-71
2022/06/19 01:33:31;;;;;;;;;9.50;9.50;;;;;26.25;42.59;100336.16;5090789;27;45566;-71
2022/06/19 01:35:59;;;;;;;;;12.00;10.75;;;;;26.12;43.21;100343.94;5103356;27;45321;-70
2022/06/19 01:38:26;;;;;;;;;12.25;9.25;;;;;25.96;43.24;100358.34;5099273;27;45219;-71
2022/06/19 01:40:55;;;;;;;;;9.50;8.00;;;;;25.86;43.02;100372.06;5100744;27;45623;-71
2022/06/19 01:43:21;;;;;;;;;9.25;9.25;;;;;25.76;43.04;100385.84;5102829;27;45495;-71
2022/06/19 01:45:53;;;;;;;;;8.75;8.75;;;;;25.50;43.77;100370.22;5102917;27;45397;-70
2022/06/19 01:48:27;;;;;;;;;9.25;9.25;;;;;25.35;43.94;100374.50;5102399;27;45510;-70
2022/06/19 01:50:55;;;;;;;;;12.00;10.25;;;;;25.28;44.05;100378.88;5102768;27;45345;-70
2022/06/19 01:53:36;;;;;;;;;13.75;10.50;;;;;25.07;43.93;100363.56;5101712;27;47272;-70
2022/06/19 01:56:05;;;;;;;;;9.25;8.75;;;;;24.79;44.31;100340.88;5091791;27;45282;-70
2022/06/19 01:58:34;;;;;;;;;14.00;10.00;;;;;24.73;44.54;100341.50;5102957;27;45467;-70
2022/06/19 02:01:05;;;;;;;;;9.75;9.00;;;;;24.62;44.23;100341.69;5102961;27;45353;-70
2022/06/19 02:03:42;;;;;;;;;13.00;11.00;;;;;24.60;44.58;100355.50;5098099;27;47197;-70
2022/06/19 02:06:10;;;;;;;;;12.25;11.25;;;;;24.56;43.97;100367.72;5092188;27;45515;-70
2022/06/19 02:08:36;;;;;;;;;12.75;10.75;;;;;24.36;44.30;100370.47;5102957;27;45266;-70
2022/06/19 02:11:04;;;;;;;;;12.25;11.50;;;;;24.14;44.75;100385.31;5102743;27;45574;-70
2022/06/19 02:13:32;;;;;;;;;8.00;7.50;;;;;23.95;44.91;100402.56;5102299;27;45606;-70
2022/06/19 02:15:58;;;;;;;;;11.00;8.25;;;;;23.87;45.09;100429.66;5101246;27;45416;-70
2022/06/19 02:18:28;;;;;;;;;12.50;9.00;;;;;23.92;45.52;100464.69;5101180;27;45858;-70
2022/06/19 02:20:53;;;;;;;;;9.75;8.25;;;;;23.86;45.05;100471.56;5102431;27;45506;-70
2022/06/19 02:23:30;;;;;;;;;13.00;10.75;;;;;23.72;45.61;100461.91;5101544;27;45326;-70
2022/06/19 02:25:57;;;;;;;;;12.50;10.50;;;;;23.56;45.54;100443.41;5102633;27;45378;-70
2022/06/19 02:28:22;;;;;;;;;12.25;10.00;;;;;23.47;45.65;100445.09;5102418;27;45364;-70
2022/06/19 02:30:48;;;;;;;;;10.50;9.00;;;;;23.35;45.87;100448.94;5102339;27;45582;-70
2022/06/19 02:33:18;;;;;;;;;10.00;10.00;;;;;23.38;45.71;100455.97;5102583;27;46054;-70
2022/06/19 02:35:44;;;;;;;;;11.00;9.25;;;;;23.33;46.41;100450.94;5102605;27;45435;-70
2022/06/19 02:38:17;;;;;;;;;10.00;7.25;;;;;23.34;45.93;100440.91;5088147;27;45325;-70
2022/06/19 02:41:03;;;;;;;;;10.25;8.25;;;;;23.35;46.14;100435.31;5096389;27;45407;-70
2022/06/19 02:43:35;;;;;;;;;12.75;11.25;;;;;23.30;45.93;100432.16;5101636;27;45410;-70
2022/06/19 02:46:06;;;;;;;;;9.25;7.00;;;;;23.22;46.41;100442.88;5102191;27;45297;-70
2022/06/19 02:48:32;;;;;;;;;9.75;7.75;;;;;23.18;46.91;100452.34;5101477;27;45329;-70
2022/06/19 02:51:01;;;;;;;;;11.50;9.00;;;;;23.20;46.57;100568.25;5100708;27;45596;-70
2022/06/19 02:53:27;;;;;;;;;11.00;7.00;;;;;23.23;46.48;100735.97;5102244;27;45394;-70
2022/06/19 02:55:54;;;;;;;;;8.25;7.75;;;;;23.27;46.81;100609.44;5101958;27;45259;-70
2022/06/19 02:58:20;;;;;;;;;10.25;8.75;;;;;23.20;46.52;100559.25;5102276;27;45398;-70
2022/06/19 03:00:48;;;;;;;;;10.00;10.00;;;;;23.22;46.84;100645.25;5102012;27;45376;-70
2022/06/19 03:03:27;;;;;;;;;9.50;7.00;;;;;23.23;46.55;100632.50;5107761;27;47282;-70
2022/06/19 03:05:53;;;;;;;;;9.75;9.25;;;;;23.24;46.63;100650.56;5090341;27;45447;-70
2022/06/19 03:08:18;;;;;;;;;11.50;10.00;;;;;23.22;46.62;100638.91;5102193;27;45217;-70
2022/06/19 03:10:44;;;;;;;;;8.25;7.50;;;;;23.18;47.08;100632.03;5102019;27;45412;-70
2022/06/19 03:13:09;;;;;;;;;11.25;9.00;;;;;23.12;46.93;100582.56;5100692;27;46307;-70
2022/06/19 03:15:34;;;;;;;;;8.50;8.50;;;;;23.08;47.08;100631.97;5101127;27;45436;-70
2022/06/19 03:18:00;;;;;;;;;8.25;8.25;;;;;23.03;46.76;100574.31;5100731;27;45368;-70
2022/06/19 03:20:26;;;;;;;;;7.75;7.50;;;;;23.01;47.25;100585.34;5099680;27;45243;-70
2022/06/19 03:22:52;;;;;;;;;12.00;8.00;;;;;22.95;47.37;100591.31;5101656;27;45505;-70
2022/06/19 03:25:18;;;;;;;;;10.00;10.00;;;;;22.91;47.28;100634.25;5101727;27;45259;-70
2022/06/19 03:27:43;;;;;;;;;11.25;10.75;;;;;22.94;47.29;100614.09;5101798;27;45289;-70
2022/06/19 03:30:11;;;;;;;;;9.25;8.50;;;;;22.90;47.24;100580.84;5100595;27;45390;-70
2022/06/19 03:32:36;;;;;;;;;11.25;9.50;;;;;22.83;47.26;100576.91;5100546;27;45342;-70
2022/06/19 03:35:02;;;;;;;;;15.75;12.00;;;;;22.77;47.52;100577.47;5101241;27;55962;-70
2022/06/19 03:37:27;;;;;;;;;12.75;10.25;;;;;22.72;47.23;100574.25;5101546;27;45309;-70
2022/06/19 03:39:53;;;;;;;;;8.50;7.50;;;;;22.67;47.39;100592.81;5093703;27;45449;-70
2022/06/19 03:42:18;;;;;;;;;10.00;9.50;;;;;22.68;47.68;100610.88;5086215;27;47342;-70
2022/06/19 03:44:44;;;;;;;;;9.50;7.75;;;;;22.65;47.87;100613.88;5100573;27;45250;-70
2022/06/19 03:47:15;;;;;;;;;12.00;7.00;;;;;22.64;47.27;100618.44;5100624;27;45492;-70
2022/06/19 03:49:40;;;;;;;;;11.50;9.50;;;;;22.74;47.38;100626.69;5089654;27;45424;-70
2022/06/19 03:52:07;;;;;;;;;13.25;9.00;;;;;22.76;47.38;100625.56;5100686;27;54326;-70
2022/06/19 03:54:33;;;;;;;;;11.00;9.00;;;;;22.73;47.39;100592.31;5101317;27;45258;-70
2022/06/19 03:56:59;;;;;;;;;10.00;9.75;;;;;22.73;47.37;100592.31;5101225;27;45291;-70
2022/06/19 03:59:25;;;;;;;;;9.50;9.00;;;;;22.68;47.40;100589.13;5100914;27;45332;-70
2022/06/19 04:01:51;;;;;;;;;12.25;10.75;;;;;22.61;47.44;100617.84;5100784;27;46522;-71
2022/06/19 04:04:16;;;;;;;;;11.00;10.00;;;;;22.54;47.49;100648.28;5093461;27;45288;-70
2022/06/19 04:06:42;;;;;;;;;17.00;11.00;;;;;22.58;47.98;100730.50;5095009;27;45474;-70
2022/06/19 04:09:12;;;;;;;;;10.50;9.00;;;;;22.58;47.88;100796.63;5101105;27;45328;-70
2022/06/19 04:11:37;;;;;;;;;12.00;10.25;;;;;22.62;48.18;100744.69;5100659;27;45324;-70
2022/06/19 04:14:03;;;;;;;;;12.50;10.25;;;;;22.57;48.15;100584.63;5100142;27;45477;-70
2022/06/19 04:16:31;;;;;;;;;20.00;14.25;;;;;22.45;49.79;100542.13;5100858;27;45258;-69
2022/06/19 04:18:59;;;;;;;;;12.50;10.75;;;;;22.30;50.55;100539.75;5098360;27;45477;-71
2022/06/19 04:21:27;;;;;;;;;21.50;15.50;;;;;22.24;51.62;100515.75;5098077;27;47400;-70
2022/06/19 04:23:56;;;;;;;;;17.00;13.00;;;;;22.17;50.03;100499.09;5090841;27;45411;-70
2022/06/19 04:26:24;;;;;;;;;13.25;12.50;;;;;21.92;51.34;100500.31;5096032;27;45379;-70
2022/06/19 04:28:49;;;;;;;;;14.50;12.50;;;;;21.88;53.17;100506.97;5091286;27;45450;-71
2022/06/19 04:31:15;;;;;;;;;15.75;11.75;;;;;21.90;52.62;100532.19;5099102;27;46926;-70
2022/06/19 04:33:40;;;;;;;;;15.25;12.00;;;;;21.87;53.15;100512.53;5100754;27;45242;-70
2022/06/19 04:36:09;;;;;;;;;16.50;10.00;;;;;21.82;53.34;100527.38;5100817;27;45321;-70
2022/06/19 04:38:36;;;;;;;;;16.25;13.25;;;;;21.76;53.85;100548.78;5094952;27;45449;-70
2022/06/19 04:41:02;;;;;;;;;16.50;13.75;;;;;21.71;53.28;100529.28;5098842;27;45315;-70
2022/06/19 04:43:27;;;;;;;;;15.75;14.75;;;;;21.58;53.31;100513.13;5099827;27;45326;-70
2022/06/19 04:46:05;;;;;;;;;13.50;9.75;;;;;21.53;53.50;100537.94;5100521;27;45364;-70
2022/06/19 04:48:31;;;;;;;;;9.75;8.75;;;;;21.50;54.34;100549.06;5099634;27;45318;-70
2022/06/19 04:50:57;;;;;;;;;10.25;9.50;;;;;21.46;53.92;100526.66;5099274;27;46676;-70
2022/06/19 04:53:22;;;;;;;;;15.00;10.50;;;;;21.32;52.90;100547.78;5100023;27;45235;-70
2022/06/19 04:55:47;;;;;;;;;10.00;8.50;;;;;21.20;54.30;100525.22;5100736;27;45225;-69
2022/06/19 04:58:13;;;;;;;;;13.00;11.00;;;;;21.13;53.34;100507.69;5099786;27;47196;-70
2022/06/19 05:00:40;;;;;;;;;9.00;9.00;;;;;21.15;54.09;100530.16;5100243;27;45417;-70
2022/06/19 05:03:06;;;;;;;;;11.50;9.75;;;;;21.15;54.83;100539.19;5100220;27;45480;-70
2022/06/19 05:05:31;;;;;;;;;11.75;10.00;;;;;21.16;54.71;100559.03;5086481;27;45511;-70
2022/06/19 05:07:56;;;;;;;;;13.50;10.50;;;;;21.13;55.26;100538.41;5100301;27;45503;-70
2022/06/19 05:10:22;;;;;;;;;9.25;8.00;;;;;21.03;54.27;100568.16;5099733;27;50019;-70
2022/06/19 05:12:48;;;;;;;;;13.25;8.75;;;;;21.00;54.84;100635.34;5099786;27;48445;-70
2022/06/19 05:15:14;;;;;;;;;9.25;9.00;;;;;20.96;54.46;100604.88;5099812;27;45344;-70
2022/06/19 05:17:40;;;;;;;;;9.25;9.25;;;;;20.96;53.63;100504.50;5099220;27;45455;-70
2022/06/19 05:20:06;;;;;;;;;12.00;10.00;;;;;20.77;54.69;100452.72;5099767;27;45409;-70
2022/06/19 05:22:33;;;;;;;;;11.50;8.25;;;;;20.68;55.22;100467.84;5099627;27;45314;-70
2022/06/19 05:24:58;;;;;;;;;10.75;9.75;;;;;20.67;56.25;100437.16;5099731;27;45500;-70
2022/06/19 05:27:24;;;;;;;;;9.25;7.00;;;;;20.67;55.32;100358.50;5098830;27;45176;-70
2022/06/19 05:29:49;;;;;;;;;10.75;7.00;;;;;20.58;55.58;100326.69;5099487;27;45402;-70
2022/06/19 05:32:14;;;;;;;;;6.00;6.00;;;;;20.54;55.88;100380.28;5099804;27;45375;-69
2022/06/19 05:34:40;;;;;;;;;8.00;7.00;;;;;20.52;56.46;100458.19;5100095;27;45298;-71
2022/06/19 05:37:05;;;;;;;;;9.00;6.50;;;;;20.53;56.57;100449.06;5100039;27;45306;-70
2022/06/19 05:39:31;;;;;;;;;8.25;8.00;;;;;20.51;55.52;100458.31;5092938;27;47153;-70
2022/06/19 05:41:57;;;;;;;;;9.00;7.75;;;;;20.35;56.10;100456.78;5099608;27;45326;-70
2022/06/19 05:44:26;;;;;;;;;7.50;5.00;;;;;20.44;56.50;100484.19;5098862;27;45425;-70
2022/06/19 05:46:56;;;;;;;;;5.25;4.50;;;;;20.41;56.33;100474.41;5098861;27;45172;-70
2022/06/19 05:49:21;;;;;;;;;6.00;4.00;;;;;20.44;56.41;100484.19;5098706;27;46126;-70
2022/06/19 05:51:46;;;;;;;;;4.75;4.50;;;;;20.43;56.21;100487.84;5099013;27;45258;-70
2022/06/19 05:54:12;;;;;;;;;5.75;4.50;;;;;20.35;55.63;100456.78;5100958;27;45578;-69
2022/06/19 05:56:37;;;;;;;;;5.50;5.50;;;;;20.28;55.74;100422.16;5103178;27;45450;-70
2022/06/19 05:59:03;;;;;;;;;7.50;6.00;;;;;20.17;54.95;100388.63;5102662;27;53036;-70
2022/06/19 06:01:29;;;;;;;;;4.75;4.00;;;;;20.04;56.11;100411.38;5102814;27;45556;-69
2022/06/19 06:03:55;;;;;;;;;11.75;9.00;;;;;19.94;56.06;100371.44;5097711;27;45587;-70
2022/06/19 06:06:24;;;;;;;;;14.00;13.00;;;;;19.86;56.49;100333.25;5093754;27;45398;-70
2022/06/19 06:08:50;;;;;;;;;19.50;15.75;;;;;19.84;57.03;100353.34;5099242;27;45775;-70
2022/06/19 06:11:16;;;;;;;;;13.50;11.25;;;;;19.84;56.79;100364.16;5097967;27;45492;-79
2022/06/19 06:13:42;;;;;;;;;16.50;16.00;;;;;19.84;57.46;100369.59;5098111;27;45302;-77
2022/06/19 06:16:09;;;;;;;;;10.50;9.00;;;;;19.85;56.93;100393.00;5098093;27;45397;-76
2022/06/19 06:18:34;;;;;;;;;12.25;7.00;;;;;19.79;56.62;100402.44;5100565;27;47029;-76
2022/06/19 06:21:02;;;;;;;;;7.00;4.50;;;;;19.71;57.78;100443.63;5101286;27;45348;-74
2022/06/19 06:23:28;;;;;;;;;7.75;7.00;;;;;19.76;56.44;100505.56;5102230;27;45280;-75
2022/06/19 06:26:08;;;;;;;;;5.75;4.00;;;;;19.73;57.07;100522.00;5101358;27;45420;-74
2022/06/19 06:28:35;;;;;;;;;8.00;5.00;;;;;19.77;57.44;100537.97;5101027;27;46137;-75
2022/06/19 06:31:01;;;;;;;;;6.00;5.50;;;;;19.80;56.92;100562.09;5096459;27;46349;-74
2022/06/19 06:33:26;;;;;;;;;6.00;5.00;;;;;19.83;56.70;100543.91;5100731;27;45403;-74
2022/06/19 06:35:52;;;;;;;;;6.75;5.25;;;;;19.80;56.86;100553.97;5095898;27;45643;-74
2022/06/19 06:38:18;;;;;;;;;7.00;5.75;;;;;19.86;56.73;100555.34;5094779;27;46035;-74
2022/06/19 06:40:43;;;;;;;;;5.75;5.25;;;;;19.85;57.28;100544.66;5100033;27;45273;-74
2022/06/19 06:43:09;;;;;;;;;5.25;4.00;;;;;19.87;57.10;100526.44;5089805;27;45485;-74
2022/06/19 06:45:34;;;;;;;;;6.00;6.00;;;;;19.88;56.72;100517.31;5100932;27;45433;-74
2022/06/19 06:48:00;;;;;;;;;7.50;5.00;;;;;19.75;56.22;100522.81;5100037;27;46149;-74
2022/06/19 06:50:26;;;;;;;;;5.25;4.00;;;;;19.73;56.36;100535.56;5100313;27;45485;-74
2022/06/19 06:52:52;;;;;;;;;8.00;6.25;;;;;19.66;56.42;100443.06;5101101;27;45574;-74
2022/06/19 06:55:17;;;;;;;;;10.50;7.25;;;;;19.51;57.29;100388.28;5093453;27;45535;-75
2022/06/19 06:57:42;;;;;;;;;8.25;6.75;;;;;19.52;57.73;100395.41;5094240;27;46968;-74
2022/06/19 07:00:13;;;;;;;;;10.50;5.75;;;;;19.43;58.17;100398.81;5100589;27;45396;-74
2022/06/19 07:02:39;;;;;;;;;7.25;6.50;;;;;19.35;57.91;100376.88;5099288;27;45443;-74
2022/06/19 07:05:04;;;;;;;;;7.25;6.00;;;;;19.32;58.83;100396.03;5096542;27;45436;-74
2022/06/19 07:07:30;;;;;;;;;6.00;5.00;;;;;19.24;58.08;100404.72;5100950;27;45478;-74
2022/06/19 07:09:55;;;;;;;;;7.50;6.50;;;;;19.22;59.73;100448.13;5100047;27;45369;-75
2022/06/19 07:12:20;;;;;;;;;5.25;5.25;;;;;19.23;58.89;100449.00;5098594;27;45425;-78
2022/06/19 07:14:46;;;;;;;;;7.50;6.75;;;;;19.21;58.15;100395.00;5101467;27;45369;-77
2022/06/19 07:17:11;;;;;;;;;10.00;6.75;;;;;19.19;59.52;100425.84;5097428;27;46333;-76
2022/06/19 07:19:36;;;;;;;;;7.25;6.25;;;;;19.22;60.06;100490.56;5100860;27;47543;-76
2022/06/19 07:22:02;;;;;;;;;9.50;7.00;;;;;19.28;60.15;100570.41;5100892;27;45294;-75
2022/06/19 07:24:27;;;;;;;;;4.75;4.75;;;;;19.34;60.43;100569.97;5099678;27;45324;-76
2022/06/19 07:26:53;;;;;;;;;10.75;7.50;;;;;19.45;60.68;100594.44;5099496;27;50019;-75
2022/06/19 07:29:18;;;;;;;;;8.25;6.75;;;;;19.48;60.48;100580.69;5096256;27;45368;-76
2022/06/19 07:31:44;;;;;;;;;5.00;4.50;;;;;19.49;60.29;100586.97;5094372;27;45536;-75
2022/06/19 07:34:09;;;;;;;;;5.25;5.25;;;;;19.56;59.93;100651.41;5095728;27;45732;-76
2022/06/19 07:36:35;;;;;;;;;4.00;4.00;;;;;19.66;58.99;100721.97;5097414;27;46879;-76
2022/06/19 07:39:01;;;;;;;;;6.25;4.25;;;;;19.74;58.52;100724.16;5097421;27;45300;-75
2022/06/19 07:41:26;;;;;;;;;7.50;5.75;;;;;19.61;59.04;100660.06;5100530;27;45317;-75
2022/06/19 07:43:52;;;;;;;;;7.50;5.00;;;;;19.78;58.62;100687.81;5099473;27;45215;-76
2022/06/19 07:46:18;;;;;;;;;5.75;4.00;;;;;19.73;57.86;100670.94;5096474;27;46863;-75
2022/06/19 07:51:29;;;;;;;;;4.50;4.00;;;;;19.86;58.13;100644.75;5100529;27;45314;-76
2022/06/19 07:53:55;;;;;;;;;3.75;3.75;;;;;19.94;58.29;100645.06;5099922;27;45591;-76
2022/06/19 07:56:20;;;;;;;;;6.00;4.25;;;;;20.00;58.24;100622.09;5096612;27;47356;-75
2022/06/19 07:58:46;;;;;;;;;4.25;4.25;;;;;20.04;57.55;100675.06;5098915;27;45513;-76
2022/06/19 08:01:12;;;;;;;;;6.00;5.25;;;;;20.00;57.21;100716.91;5098113;27;45385;-76
2022/06/19 08:03:37;;;;;;;;;5.00;5.00;;;;;20.18;56.76;100783.31;5095002;27;46900;-79
2022/06/19 08:06:03;;;;;;;;;4.50;4.00;;;;;20.23;56.77;100747.75;5095272;27;45494;-75
2022/06/19 08:08:32;;;;;;;;;5.25;4.75;;;;;20.22;57.54;100704.50;5096377;27;45307;-74
2022/06/19 08:10:59;;;;;;;;;6.00;5.00;;;;;20.23;56.89;100707.09;5093231;27;46383;-74
2022/06/19 08:13:27;;;;;;;;;6.75;6.00;;;;;20.30;57.09;100694.81;5096879;27;45520;-75
2022/06/19 08:15:56;;;;;;;;;8.25;8.25;;;;;20.28;57.28;100657.94;5097146;27;48183;-75
2022/06/19 08:18:22;;;;;;;;;9.25;8.00;;;;;20.26;56.63;100641.81;5100090;27;45340;-75
2022/06/19 08:20:48;;;;;;;;;6.25;6.25;;;;;20.22;58.04;100651.16;5100666;27;45271;-75
2022/06/19 08:23:14;;;;;;;;;7.00;6.25;;;;;20.10;56.78;100650.22;5099255;27;45652;-76
2022/06/19 08:25:40;;;;;;;;;8.00;6.25;;;;;20.11;57.80;100642.94;5100064;27;45255;-76
2022/06/19 08:28:07;;;;;;;;;7.25;6.00;;;;;19.99;56.78;100604.09;5100516;27;45619;-75
2022/06/19 08:30:40;;;;;;;;;6.75;6.50;;;;;19.97;57.56;100589.78;5095730;27;45327;-75
2022/06/19 08:33:07;;;;;;;;;9.00;7.00;;;;;19.88;57.18;100571.50;5097745;27;45993;-76
2022/06/19 08:35:37;;;;;;;;;8.25;6.25;;;;;19.79;56.86;100556.81;5099828;27;45392;-76
2022/06/19 08:38:08;;;;;;;;;11.00;8.75;;;;;19.79;56.53;100552.25;5098481;27;45449;-75
2022/06/19 08:41:00;;;;;;;;;8.50;6.50;;;;;19.70;56.87;100539.38;5096574;27;45390;-75
2022/06/19 08:43:43;;;;;;;;;14.75;9.50;;;;;19.60;57.53;100533.75;5094585;27;45380;-75
2022/06/19 08:46:25;;;;;;;;;8.25;6.25;;;;;19.54;57.30;100512.53;5097552;27;46739;-75
2022/06/19 08:49:25;;;;;;;;;9.75;9.75;;;;;19.35;57.18;100480.56;5096181;27;45442;-76
2022/06/19 08:52:02;;;;;;;;;13.00;12.00;;;;;19.39;58.00;100508.25;5097190;27;46021;-75
2022/06/19 08:54:39;;;;;;;;;8.25;8.25;;;;;19.39;58.83;100546.16;5095594;27;45259;-76
2022/06/19 08:57:29;;;;;;;;;7.25;7.25;;;;;19.34;58.47;100515.84;5091828;27;47686;-76
2022/06/19 09:00:04;;;;;;;;;10.75;9.25;;;;;19.44;58.33;100519.63;5098740;27;45564;-76
2022/06/19 09:02:53;;;;;;;;;9.25;8.75;;;;;19.20;58.07;100487.97;5098246;27;45324;-75
2022/06/19 09:05:56;;;;;;;;;12.00;9.00;;;;;19.35;58.92;100534.69;5095462;27;45440;-75
2022/06/19 09:08:30;;;;;;;;;13.75;12.25;;;;;19.37;58.89;100535.44;5089994;27;45480;-75
2022/06/19 09:11:01;;;;;;;;;13.75;11.75;;;;;19.37;59.42;100562.50;5093268;27;46094;-76
2022/06/19 09:13:33;;;;;;;;;11.00;7.00;;;;;19.46;59.11;100598.00;5098108;27;45425;-75
2022/06/19 09:16:07;;;;;;;;;12.00;11.75;;;;;19.51;59.42;100622.91;5098925;27;45375;-75
2022/06/19 09:18:52;;;;;;;;;11.00;10.25;;;;;19.52;58.92;100627.34;5094996;27;47047;-75
2022/06/19 09:21:29;;;;;;;;;11.00;10.50;;;;;19.64;59.15;100653.53;5098710;27;45439;-75
2022/06/19 09:24:24;;;;;;;;;10.75;10.75;;;;;19.73;58.46;100658.31;5092499;27;45623;-75
2022/06/19 09:27:00;;;;;;;;;11.00;11.00;;;;;19.80;59.11;100653.34;5095879;27;45372;-74
2022/06/19 09:29:33;;;;;;;;;13.25;13.00;;;;;19.86;59.05;100636.63;5100404;27;45536;-74
2022/06/19 09:32:09;;;;;;;;;11.25;9.25;;;;;19.87;58.77;100643.78;5097908;27;45524;-75
2022/06/19 09:34:56;;;;;;;;;13.75;12.75;;;;;20.01;58.77;100655.44;5101531;27;45330;-76
2022/06/19 09:37:25;;;;;;;;;16.00;14.50;;;;;20.09;57.99;100666.59;5101769;27;45539;-76
2022/06/19 09:40:30;;;;;;;;;14.25;11.25;;;;;20.13;58.42;100662.66;5094039;27;45563;-76
2022/06/19 09:43:08;;;;;;;;;13.00;12.00;;;;;20.14;58.88;100649.00;5106668;27;45392;-76
2022/06/19 09:45:51;;;;;;;;;19.00;16.50;;;;;20.23;59.23;100638.47;5086833;27;45527;-77
2022/06/19 09:48:24;;;;;;;;;16.50;15.00;;;;;20.36;58.72;100650.13;5099862;27;46037;-77
2022/06/19 09:51:12;;;;;;;;;14.75;13.75;;;;;20.42;58.98;100648.81;5100899;27;48157;-76
2022/06/19 09:53:53;;;;;;;;;16.75;16.00;;;;;20.47;58.28;100649.31;5097788;27;45302;-76
2022/06/19 09:56:30;;;;;;;;;21.50;17.25;;;;;20.56;58.13;100654.03;5102995;27;45379;-76
2022/06/19 09:59:16;;;;;;;;;14.00;14.00;;;;;20.62;57.84;100648.16;5092556;27;45366;-76
2022/06/19 10:01:44;;;;;;;;;14.25;13.00;;;;;20.70;58.98;100650.31;5090036;27;48443;-77
2022/06/19 10:04:35;;;;;;;;;16.00;13.75;;;;;20.79;58.04;100651.47;5100604;27;45494;-76
2022/06/19 10:07:07;;;;;;;;;19.25;16.00;;;;;20.51;58.93;100593.88;5097668;27;45649;-77
2022/06/19 10:09:40;;;;;;;;;15.50;15.25;;;;;20.95;58.10;100635.72;5101544;27;46165;-76
2022/06/19 10:12:14;;;;;;;;;14.00;12.25;;;;;20.91;57.97;100617.94;5101289;27;45274;-77
2022/06/19 10:14:47;;;;;;;;;14.50;12.75;;;;;20.82;57.83;100596.97;5100922;27;45485;-78
2022/06/19 10:17:50;;;;;;;;;18.75;16.00;;;;;21.09;56.73;100631.94;5100991;27;45275;-76
2022/06/19 10:20:19;;;;;;;;;16.00;15.75;;;;;21.08;56.69;100619.31;5099306;27;45557;-76
2022/06/19 10:22:56;;;;;;;;;13.50;11.75;;;;;20.97;57.72;100589.47;5092967;27;47594;-75
2022/06/19 10:25:39;;;;;;;;;14.50;13.75;;;;;21.25;57.57;100620.72;5098850;27;45293;-75
2022/06/19 10:28:16;;;;;;;;;16.00;16.00;;;;;21.31;57.19;100603.94;5101527;27;45345;-75
2022/06/19 10:31:30;;;;;;;;;16.00;12.75;;;;;21.37;56.76;100595.31;5089056;27;45241;-74
2022/06/19 10:34:11;;;;;;;;;20.25;18.25;;;;;21.38;56.45;100596.16;5077277;27;46183;-74
2022/06/19 10:36:36;;;;;;;;;13.75;12.50;;;;;21.44;56.84;100588.41;5100094;27;45251;-75
2022/06/19 10:39:09;;;;;;;;;15.00;14.00;;;;;21.48;56.82;100591.75;5094298;27;45390;-77
2022/06/19 10:42:05;;;;;;;;;14.50;12.75;;;;;21.56;57.40;100583.00;5095581;27;45515;-75
2022/06/19 10:44:59;;;;;;;;;17.25;16.25;;;;;21.64;56.10;100591.38;5093380;27;47094;-80
2022/06/19 10:47:49;;;;;;;;;14.50;14.25;;;;;21.52;56.06;100567.91;5100594;27;45220;-77
2022/06/19 10:50:24;;;;;;;;;19.25;18.25;;;;;21.70;55.67;100599.06;5094538;27;45379;-76
2022/06/19 10:53:31;;;;;;;;;21.50;20.00;;;;;21.62;55.94;100582.50;5090950;27;45655;-76
2022/06/19 10:56:12;;;;;;;;;20.00;18.25;;;;;21.69;56.12;100574.72;5082386;27;45709;-75
2022/06/19 10:58:37;;;;;;;;;13.50;13.25;;;;;21.69;56.69;100555.72;5101673;27;45578;-75
2022/06/19 11:01:09;;;;;;;;;13.00;12.00;;;;;21.95;55.69;100586.13;5099867;27;45379;-75
2022/06/19 11:04:08;;;;;;;;;17.25;16.00;;;;;21.80;55.80;100558.38;5100693;27;45333;-73
2022/06/19 11:06:50;;;;;;;;;17.75;15.75;;;;;22.08;56.49;100603.16;5099880;27;47211;-75
2022/06/19 11:09:29;;;;;;;;;18.00;13.50;;;;;22.11;55.90;100583.88;5097664;27;45410;-75
2022/06/19 11:12:01;;;;;;;;;20.00;17.25;;;;;22.16;55.22;100578.06;5093933;27;45402;-75
2022/06/19 11:14:26;;;;;;;;;20.25;18.00;;;;;22.16;55.73;100587.06;5098224;27;46441;-77
2022/06/19 11:16:54;;;;;;;;;19.00;17.75;;;;;22.19;55.33;100599.56;5099809;27;48096;-76
2022/06/19 11:19:45;;;;;;;;;20.75;18.00;;;;;22.25;56.10;100600.88;5087205;27;45795;-75
2022/06/19 11:22:30;;;;;;;;;23.50;22.00;;;;;22.24;55.51;100599.19;5090150;27;45496;-75
2022/06/19 11:24:56;;;;;;;;;20.25;17.75;;;;;22.21;55.30;100598.41;5099494;27;45447;-75
2022/06/19 11:27:26;;;;;;;;;20.50;19.75;;;;;22.18;55.52;100578.78;5095840;27;46040;-75
2022/06/19 11:29:54;;;;;;;;;19.00;17.75;;;;;22.09;54.89;100555.13;5096671;27;45566;-76
2022/06/19 11:32:22;;;;;;;;;24.00;18.50;;;;;22.34;55.84;100581.97;5090286;27;45401;-75
2022/06/19 11:35:05;;;;;;;;;18.25;18.25;;;;;22.28;55.97;100549.88;5097461;27;45641;-75
2022/06/19 11:37:57;;;;;;;;;18.25;16.00;;;;;22.44;55.84;100584.78;5098006;27;47595;-75